createdAt,value
2022-11-24T00:00:30.753Z,98236.13
2022-11-24T00:02:57.389Z,98229.22
2022-11-24T00:05:24.111Z,98230.09
2022-11-24T00:07:50.745Z,98232.69
2022-11-24T00:10:17.650Z,98235.22
2022-11-24T00:12:44.254Z,98239.53
2022-11-24T00:15:10.989Z,98235.28
2022-11-24T00:17:37.552Z,98246.47
2022-11-24T00:20:04.603Z,98231.91
2022-11-24T00:22:31.173Z,98245.69
2022-11-24T00:24:57.736Z,98251.69
2022-11-24T00:27:24.296Z,98250.88
2022-11-24T00:29:50.911Z,98262.09
2022-11-24T00:32:17.487Z,98262.94
2022-11-24T00:34:44.133Z,98264.75
2022-11-24T00:37:10.740Z,98266.53
2022-11-24T00:39:37.362Z,98281.16
2022-11-24T00:42:03.981Z,98288.91
2022-11-24T00:44:30.801Z,98283.78
2022-11-24T00:46:57.720Z,98304.41
2022-11-24T00:49:24.357Z,98301.88
2022-11-24T00:51:53.012Z,98300.22
2022-11-24T00:54:19.674Z,98299.34
2022-11-24T00:56:46.269Z,98308.84
2022-11-24T00:59:12.830Z,98304.56
2022-11-24T01:01:39.519Z,98309.78
2022-11-24T01:04:06.130Z,98314.94
2022-11-24T01:06:33.088Z,98325.25
2022-11-24T01:08:59.834Z,98326.97
2022-11-24T01:11:29.852Z,98335.56
2022-11-24T01:13:59.342Z,98339.03
2022-11-24T01:16:29.139Z,98342.50
2022-11-24T01:18:56.301Z,98352.81
2022-11-24T01:21:24.664Z,98356.25
2022-11-24T01:23:52.737Z,98358.00
2022-11-24T01:26:23.793Z,98362.25
2022-11-24T01:28:57.094Z,98364.03
2022-11-24T01:31:26.546Z,98372.59
2022-11-24T01:33:55.499Z,98374.34
2022-11-24T01:36:23.876Z,98377.81
2022-11-24T01:38:52.970Z,98376.94
2022-11-24T01:41:24.999Z,98381.25
2022-11-24T01:43:57.696Z,98389.84
2022-11-24T01:49:14.454Z,98397.59
2022-11-24T01:51:47.908Z,98406.16
2022-11-24T01:54:20.339Z,98416.44
2022-11-24T01:56:51.345Z,98415.59
2022-11-24T01:59:21.822Z,98416.47
2022-11-24T02:01:51.422Z,98414.78
2022-11-24T02:04:23.944Z,98416.50
2022-11-24T02:06:52.772Z,98417.38
2022-11-24T02:09:24.152Z,98425.09
2022-11-24T02:11:53.470Z,98425.09
2022-11-24T02:14:22.362Z,98421.66
2022-11-24T02:16:51.215Z,98431.94
2022-11-24T02:19:53.798Z,98426.00
2022-11-24T02:25:49.634Z,98461.13
2022-11-24T02:28:20.156Z,98476.53
2022-11-24T02:30:47.017Z,98474.84
2022-11-24T02:33:14.044Z,98487.69
2022-11-24T02:35:41.212Z,98472.28
2022-11-24T02:38:12.102Z,98485.13
2022-11-24T02:40:41.594Z,98492.84
2022-11-24T02:43:13.800Z,98494.56
2022-11-24T02:45:40.419Z,98492.84
2022-11-24T02:48:07.820Z,98500.56
2022-11-24T02:50:34.489Z,98502.31
2022-11-24T02:53:01.070Z,98503.13
2022-11-24T02:55:27.637Z,98492.03
2022-11-24T02:57:54.235Z,98503.19
2022-11-24T03:00:22.214Z,98522.88
2022-11-24T03:02:48.939Z,98534.88
2022-11-24T03:05:15.769Z,98538.31
2022-11-24T03:07:42.397Z,98546.88
2022-11-24T03:10:09.441Z,98541.75
2022-11-24T03:12:36.161Z,98540.91
2022-11-24T03:15:03.345Z,98546.03
2022-11-24T03:17:30.100Z,98541.75
2022-11-24T03:20:00.219Z,98553.75
2022-11-24T03:22:30.892Z,98546.06
2022-11-24T03:24:57.531Z,98555.47
2022-11-24T03:27:24.125Z,98550.34
2022-11-24T03:29:50.772Z,98558.88
2022-11-24T03:32:17.381Z,98557.19
2022-11-24T03:34:43.956Z,98559.75
2022-11-24T03:37:10.609Z,98566.56
2022-11-24T03:39:37.207Z,98557.16
2022-11-24T03:42:03.912Z,98566.56
2022-11-24T03:44:30.622Z,98570.00
2022-11-24T03:46:57.248Z,98561.41
2022-11-24T03:49:23.834Z,98570.81
2022-11-24T03:51:50.589Z,98565.69
2022-11-24T03:54:17.171Z,98571.69
2022-11-24T03:56:43.825Z,98572.53
2022-11-24T03:59:10.537Z,98583.66
2022-11-24T04:01:37.166Z,98593.94
2022-11-24T04:04:03.878Z,98596.50
2022-11-24T04:06:30.515Z,98596.50
2022-11-24T04:08:57.098Z,98593.91
2022-11-24T04:11:43.598Z,98589.66
2022-11-24T04:14:13.590Z,98602.50
2022-11-24T04:16:40.864Z,98605.94
2022-11-24T04:19:07.597Z,98611.06
2022-11-24T04:21:34.184Z,98619.63
2022-11-24T04:24:00.776Z,98623.94
2022-11-24T04:26:27.755Z,98628.22
2022-11-24T04:28:54.361Z,98629.91
2022-11-24T04:31:21.046Z,98625.66
2022-11-24T04:33:47.682Z,98637.66
2022-11-24T04:36:14.307Z,98635.94
2022-11-24T04:39:23.942Z,98641.06
2022-11-24T04:41:27.575Z,98635.97
2022-11-24T04:43:54.131Z,98652.22
2022-11-24T04:46:20.776Z,98651.41
2022-11-24T04:48:47.450Z,98653.97
2022-11-24T04:51:15.261Z,98656.53
2022-11-24T04:53:41.995Z,98658.25
2022-11-24T04:56:08.749Z,98647.97
2022-11-24T04:58:35.851Z,98662.56
2022-11-24T05:01:06.121Z,98665.13
2022-11-24T05:03:32.716Z,98660.84
2022-11-24T05:05:59.896Z,98656.56
2022-11-24T05:08:26.513Z,98662.56
2022-11-24T05:10:53.242Z,98666.84
2022-11-24T05:13:19.853Z,98663.44
2022-11-24T05:15:46.525Z,98666.84
2022-11-24T05:18:15.819Z,98670.28
2022-11-24T05:20:44.760Z,98670.28
2022-11-24T05:23:11.401Z,98663.44
2022-11-24T05:25:37.946Z,98684.84
2022-11-24T05:28:08.822Z,98687.41
2022-11-24T05:30:38.189Z,98687.41
2022-11-24T05:33:07.725Z,98691.69
2022-11-24T05:35:36.468Z,98699.41
2022-11-24T05:38:04.434Z,98700.25
2022-11-24T05:40:32.024Z,98707.97
2022-11-24T05:42:59.321Z,98700.25
2022-11-24T05:45:26.148Z,98701.09
2022-11-24T05:47:53.285Z,98707.97
2022-11-24T05:50:22.049Z,98722.50
2022-11-24T05:52:49.716Z,98716.53
2022-11-24T05:55:19.371Z,98712.25
2022-11-24T05:57:46.210Z,98707.97
2022-11-24T06:00:13.308Z,98711.41
2022-11-24T06:02:40.161Z,98721.69
2022-11-24T06:05:07.199Z,98724.25
2022-11-24T06:07:33.800Z,98733.66
2022-11-24T06:10:00.370Z,98724.25
2022-11-24T06:12:26.939Z,98735.34
2022-11-24T06:14:53.480Z,98728.53
2022-11-24T06:17:20.031Z,98740.50
2022-11-24T06:19:50.121Z,98737.09
2022-11-24T06:22:17.684Z,98737.91
2022-11-24T06:24:44.309Z,98725.94
2022-11-24T06:27:10.852Z,98733.66
2022-11-24T06:29:37.400Z,98737.03
2022-11-24T06:32:04.294Z,98754.16
2022-11-24T06:34:31.006Z,98761.84
2022-11-24T06:36:57.933Z,98754.16
2022-11-24T06:39:24.504Z,98755.03
2022-11-24T06:41:51.529Z,98745.59
2022-11-24T06:44:18.487Z,98740.44
2022-11-24T06:46:45.344Z,98749.03
2022-11-24T06:49:11.877Z,98765.28
2022-11-24T06:51:38.467Z,98762.72
2022-11-24T06:54:10.393Z,98767.00
2022-11-24T06:56:36.984Z,98767.88
2022-11-24T06:59:03.594Z,98773.00
2022-11-24T07:01:30.668Z,98773.00
2022-11-24T07:03:58.268Z,98783.28
2022-11-24T07:06:26.780Z,98789.28
2022-11-24T07:08:53.540Z,98800.38
2022-11-24T07:11:23.060Z,98810.66
2022-11-24T07:13:56.697Z,98822.63
2022-11-24T07:16:26.786Z,98819.19
2022-11-24T07:18:54.157Z,98822.59
2022-11-24T07:21:22.936Z,98829.47
2022-11-24T07:23:51.404Z,98824.34
2022-11-24T07:26:19.050Z,98820.94
2022-11-24T07:28:46.017Z,98840.63
2022-11-24T07:31:15.472Z,98835.47
2022-11-24T07:33:42.335Z,98845.75
2022-11-24T07:36:09.499Z,98839.75
2022-11-24T07:38:36.265Z,98842.28
2022-11-24T07:41:05.082Z,98838.00
2022-11-24T07:43:33.058Z,98834.63
2022-11-24T07:45:59.878Z,98832.03
2022-11-24T07:48:26.959Z,98836.31
2022-11-24T07:50:56.106Z,98833.75
2022-11-24T07:53:22.988Z,98831.19
2022-11-24T07:55:55.937Z,98834.63
2022-11-24T07:58:25.495Z,98838.00
2022-11-24T08:00:54.258Z,98829.47
2022-11-24T08:03:24.120Z,98832.88
2022-11-24T08:08:43.927Z,98824.34
2022-11-24T08:11:13.815Z,98824.28
2022-11-24T08:13:41.387Z,98819.97
2022-11-24T08:16:10.707Z,98812.25
2022-11-24T08:18:38.111Z,98802.84
2022-11-24T08:21:06.074Z,98794.22
2022-11-24T08:23:33.037Z,98795.16
2022-11-24T08:26:05.147Z,98801.97
2022-11-24T08:28:32.981Z,98807.94
2022-11-24T08:31:05.129Z,98798.50
2022-11-24T08:33:32.390Z,98812.19
2022-11-24T08:36:17.930Z,98813.03
2022-11-24T08:38:45.324Z,98822.44
2022-11-24T08:41:15.828Z,98819.88
2022-11-24T08:43:42.804Z,98820.69
2022-11-24T08:46:13.733Z,98822.38
2022-11-24T08:48:40.609Z,98819.81
2022-11-24T08:51:10.668Z,98821.50
2022-11-24T08:53:37.421Z,98812.94
2022-11-24T08:56:05.502Z,98824.06
2022-11-24T08:58:34.250Z,98820.59
2022-11-24T09:01:11.165Z,98818.84
2022-11-24T09:03:38.412Z,98826.63
2022-11-24T09:06:06.797Z,98818.00
2022-11-24T09:08:34.191Z,98818.00
2022-11-24T09:11:04.214Z,98813.66
2022-11-24T09:13:30.834Z,98817.13
2022-11-24T09:16:02.015Z,98813.72
2022-11-24T09:18:30.413Z,98813.69
2022-11-24T09:21:08.161Z,98802.59
2022-11-24T09:23:34.930Z,98805.97
2022-11-24T09:26:05.900Z,98800.00
2022-11-24T09:28:32.528Z,98781.19
2022-11-24T09:31:02.713Z,98787.16
2022-11-24T09:33:30.098Z,98779.44
2022-11-24T09:35:56.758Z,98777.72
2022-11-24T09:38:23.385Z,98779.44
2022-11-24T09:40:50.671Z,98773.47
2022-11-24T09:43:36.979Z,98765.75
2022-11-24T09:46:16.037Z,98757.16
2022-11-24T09:48:48.527Z,98757.09
2022-11-24T09:51:16.102Z,98751.94
2022-11-24T09:53:48.748Z,98749.38
2022-11-24T09:58:54.916Z,98744.22
2022-11-24T10:01:29.102Z,98747.66
2022-11-24T10:03:58.607Z,98750.22
2022-11-24T10:06:31.855Z,98751.88
2022-11-24T10:11:43.081Z,98760.44
2022-11-24T10:22:36.124Z,98754.91
2022-11-24T10:27:46.879Z,98752.09
2022-11-24T10:30:18.468Z,98753.69
2022-11-24T10:32:48.197Z,98748.22
2022-11-24T10:35:19.073Z,98741.09
2022-11-24T10:43:11.288Z,98724.16
2022-11-24T10:45:39.542Z,98723.09
2022-11-24T10:48:18.637Z,98706.50
2022-11-24T10:50:45.267Z,98703.66
2022-11-24T10:53:30.207Z,98694.16
2022-11-24T10:58:37.956Z,98702.59
2022-11-24T11:01:33.441Z,98692.38
2022-11-24T11:04:01.616Z,98689.63
2022-11-24T11:11:44.594Z,98679.16
2022-11-24T11:14:13.019Z,98685.25
2022-11-24T11:16:43.802Z,98675.72
2022-11-24T11:19:50.676Z,98686.88
2022-11-24T11:22:29.132Z,98675.63
2022-11-24T11:27:47.212Z,98655.81
2022-11-24T11:35:46.226Z,98639.25
2022-11-24T11:38:12.854Z,98627.06
2022-11-24T11:40:42.886Z,98614.97
2022-11-24T11:43:27.224Z,98617.38
2022-11-24T11:46:03.813Z,98614.47
2022-11-24T11:48:42.701Z,98607.22
2022-11-24T11:51:35.924Z,98580.13
2022-11-24T11:56:45.339Z,98565.31
2022-11-24T11:59:37.809Z,98565.31
2022-11-24T12:05:26.554Z,98559.34
2022-11-24T12:13:45.070Z,98556.59
2022-11-24T12:16:25.144Z,98545.25
2022-11-24T12:19:15.772Z,98534.13
2022-11-24T12:33:13.163Z,98531.16
2022-11-24T12:43:39.699Z,98513.06
2022-11-24T12:46:35.214Z,98500.69
2022-11-24T12:51:56.133Z,98494.53
2022-11-24T12:54:24.887Z,98484.97
2022-11-24T12:57:07.542Z,98484.06
2022-11-24T13:05:42.527Z,98473.81
2022-11-24T13:08:09.464Z,98460.63
2022-11-24T13:10:56.185Z,98462.41
2022-11-24T13:13:28.245Z,98454.59
2022-11-24T13:27:15.487Z,98409.75
2022-11-24T13:29:44.205Z,98396.09
2022-11-24T13:58:53.896Z,98344.91
2022-11-24T14:01:24.264Z,98337.03
2022-11-24T14:14:52.769Z,98310.09
2022-11-24T14:17:25.120Z,98317.91
2022-11-24T14:19:53.634Z,98322.88
2022-11-24T14:22:23.086Z,98320.19
2022-11-24T14:24:57.321Z,98324.50
2022-11-24T14:27:29.879Z,98318.38
2022-11-24T14:30:00.537Z,98306.34
2022-11-24T14:32:27.552Z,98309.84
2022-11-24T14:34:54.626Z,98303.06
2022-11-24T14:37:21.465Z,98301.25
2022-11-24T14:39:48.115Z,98312.66
2022-11-24T14:45:03.789Z,98314.19
2022-11-24T14:50:23.428Z,98315.38
2022-11-24T14:52:54.455Z,98306.91
2022-11-24T14:55:39.156Z,98297.59
2022-11-24T14:58:27.752Z,98301.88
2022-11-24T15:01:32.684Z,98298.50
2022-11-24T15:07:26.068Z,98292.56
2022-11-24T15:09:58.114Z,98286.28
2022-11-24T15:12:43.279Z,98286.38
2022-11-24T15:15:20.557Z,98293.28
2022-11-24T15:17:49.816Z,98295.88
2022-11-24T15:20:37.332Z,98287.38
2022-11-24T15:25:56.228Z,98296.75
2022-11-24T15:28:27.081Z,98293.28
2022-11-24T15:30:54.855Z,98299.41
2022-11-24T15:33:23.214Z,98310.50
2022-11-24T15:35:50.457Z,98297.84
2022-11-24T15:38:17.468Z,98309.09
2022-11-24T15:40:46.909Z,98307.41
2022-11-24T15:45:53.141Z,98376.69
2022-11-24T15:48:19.712Z,98383.88
2022-11-24T15:50:47.401Z,98390.75
2022-11-24T15:53:20.182Z,98384.25
2022-11-24T15:55:47.609Z,98391.34
2022-11-24T15:58:15.215Z,98398.41
2022-11-24T16:00:43.373Z,98396.88
2022-11-24T16:03:44.314Z,98404.78
2022-11-24T16:05:57.316Z,98393.81
2022-11-24T16:08:24.012Z,98376.78
2022-11-24T16:10:51.336Z,98383.78
2022-11-24T16:13:17.970Z,98391.63
2022-11-24T16:15:45.994Z,98382.16
2022-11-24T16:18:13.991Z,98394.38
2022-11-24T16:20:40.747Z,98387.63
2022-11-24T16:23:07.397Z,98390.31
2022-11-24T16:25:34.002Z,98402.56
2022-11-24T16:28:00.581Z,98392.47
2022-11-24T16:30:27.148Z,98388.38
2022-11-24T16:32:53.712Z,98389.41
2022-11-24T16:35:20.353Z,98393.91
2022-11-24T16:37:46.940Z,98402.69
2022-11-24T16:40:14.525Z,98398.50
2022-11-24T16:42:41.138Z,98397.06
2022-11-24T16:45:11.002Z,98399.72
2022-11-24T16:47:40.139Z,98404.13
2022-11-24T16:50:08.215Z,98401.63
2022-11-24T16:52:34.813Z,98397.44
2022-11-24T16:55:01.867Z,98405.28
2022-11-24T16:57:28.491Z,98410.50
2022-11-24T16:59:55.023Z,98408.88
2022-11-24T17:02:21.691Z,98409.75
2022-11-24T17:04:52.179Z,98428.78
2022-11-24T17:07:20.357Z,98431.38
2022-11-24T17:09:47.247Z,98429.66
2022-11-24T17:12:13.808Z,98431.41
2022-11-24T17:14:40.325Z,98437.50
2022-11-24T17:17:06.874Z,98441.81
2022-11-24T17:19:33.439Z,98440.13
2022-11-24T17:22:00.056Z,98442.78
2022-11-24T17:24:26.638Z,98443.66
2022-11-24T17:26:53.345Z,98435.09
2022-11-24T17:29:20.008Z,98435.16
2022-11-24T17:31:46.843Z,98434.34
2022-11-24T17:34:13.733Z,98444.69
2022-11-24T17:36:41.557Z,98454.19
2022-11-24T17:39:09.243Z,98458.47
2022-11-24T17:41:35.877Z,98464.56
2022-11-24T17:44:02.810Z,98461.13
2022-11-24T17:46:30.666Z,98458.56
2022-11-24T17:48:57.941Z,98459.44
2022-11-24T17:51:26.231Z,98452.66
2022-11-24T17:53:54.582Z,98463.78
2022-11-24T17:56:25.055Z,98480.13
2022-11-24T17:58:54.679Z,98482.72
2022-11-24T18:01:22.511Z,98483.66
2022-11-24T18:03:53.488Z,98490.50
2022-11-24T18:06:24.136Z,98485.38
2022-11-24T18:08:50.856Z,98481.31
2022-11-24T18:11:24.661Z,98480.31
2022-11-24T18:14:00.770Z,98485.53
2022-11-24T18:16:30.377Z,98484.59
2022-11-24T18:19:09.829Z,98485.56
2022-11-24T18:21:39.081Z,98499.34
2022-11-24T18:24:06.656Z,98501.94
2022-11-24T18:26:33.324Z,98506.31
2022-11-24T18:28:59.930Z,98509.72
2022-11-24T18:31:26.829Z,98514.88
2022-11-24T18:33:53.705Z,98523.44
2022-11-24T18:36:28.392Z,98529.41
2022-11-24T18:38:56.749Z,98528.59
2022-11-24T18:41:23.334Z,98518.31
2022-11-24T18:43:49.897Z,98515.81
2022-11-24T18:46:19.260Z,98523.50
2022-11-24T18:48:45.977Z,98526.06
2022-11-24T18:51:16.326Z,98525.31
2022-11-24T18:53:44.371Z,98521.88
2022-11-24T18:56:15.346Z,98518.38
2022-11-24T18:58:42.564Z,98519.28
2022-11-24T19:01:18.577Z,98520.25
2022-11-24T19:03:49.043Z,98529.63
2022-11-24T19:08:55.197Z,98530.59
2022-11-24T19:11:24.836Z,98536.69
2022-11-24T19:13:51.921Z,98532.41
2022-11-24T19:16:20.402Z,98532.41
2022-11-24T19:18:53.641Z,98532.50
2022-11-24T19:21:21.733Z,98532.53
2022-11-24T19:23:48.586Z,98529.16
2022-11-24T19:26:15.283Z,98538.63
2022-11-24T19:28:41.907Z,98539.50
2022-11-24T19:31:11.352Z,98549.81
2022-11-24T19:33:38.143Z,98549.84
2022-11-24T19:36:07.697Z,98564.56
2022-11-24T19:38:35.213Z,98572.28
2022-11-24T19:41:05.131Z,98571.41
2022-11-24T19:43:32.395Z,98573.19
2022-11-24T19:46:02.410Z,98588.69
2022-11-24T19:48:33.241Z,98600.72
2022-11-24T19:51:06.662Z,98605.91
2022-11-24T19:53:34.104Z,98625.69
2022-11-24T19:56:06.233Z,98618.03
2022-11-24T19:58:32.901Z,98624.84
2022-11-24T20:03:59.061Z,98622.34
2022-11-24T20:06:28.126Z,98613.78
2022-11-24T20:08:54.687Z,98615.53
2022-11-24T20:11:21.957Z,98616.38
2022-11-24T20:13:49.947Z,98615.53
2022-11-24T20:16:18.876Z,98612.97
2022-11-24T20:18:46.924Z,98612.13
2022-11-24T20:21:17.894Z,98602.72
2022-11-24T20:23:46.262Z,98605.28
2022-11-24T20:26:16.236Z,98598.47
2022-11-24T20:28:43.153Z,98595.00
2022-11-24T20:31:12.385Z,98592.44
2022-11-24T20:33:39.921Z,98590.75
2022-11-24T20:36:10.381Z,98596.78
2022-11-24T20:38:37.729Z,98603.66
2022-11-24T20:41:09.406Z,98606.22
2022-11-24T20:43:37.058Z,98613.97
2022-11-24T20:46:07.446Z,98608.03
2022-11-24T20:48:35.105Z,98608.06
2022-11-24T20:51:09.148Z,98606.38
2022-11-24T20:53:37.158Z,98603.78
2022-11-24T20:56:06.517Z,98592.59
2022-11-24T20:58:35.081Z,98614.94
2022-11-24T21:01:05.329Z,98602.03
2022-11-24T21:03:32.076Z,98603.88
2022-11-24T21:05:58.756Z,98609.84
2022-11-24T21:08:25.407Z,98599.56
2022-11-24T21:10:55.789Z,98585.75
2022-11-24T21:13:23.001Z,98592.56
2022-11-24T21:15:50.546Z,98592.56
2022-11-24T21:18:17.394Z,98595.94
2022-11-24T21:20:45.877Z,98586.59
2022-11-24T21:23:13.829Z,98575.41
2022-11-24T21:25:40.425Z,98571.00
2022-11-24T21:28:08.213Z,98572.81
2022-11-24T21:30:36.261Z,98568.44
2022-11-24T21:33:04.127Z,98562.44
2022-11-24T21:35:34.267Z,98563.34
2022-11-24T21:38:00.859Z,98571.09
2022-11-24T21:40:27.648Z,98579.69
2022-11-24T21:42:54.280Z,98569.44
2022-11-24T21:45:20.803Z,98574.56
2022-11-24T21:47:47.356Z,98576.28
2022-11-24T21:50:13.890Z,98568.66
2022-11-24T21:52:40.455Z,98567.78
2022-11-24T21:55:07.316Z,98566.94
2022-11-24T21:57:33.954Z,98572.97
2022-11-24T22:00:00.519Z,98579.88
2022-11-24T22:02:27.096Z,98582.47
2022-11-24T22:04:53.767Z,98578.16
2022-11-24T22:07:20.452Z,98574.81
2022-11-24T22:09:49.118Z,98597.06
2022-11-24T22:12:16.328Z,98598.81
2022-11-24T22:14:43.239Z,98600.47
2022-11-24T22:17:10.038Z,98608.25
2022-11-24T22:19:36.589Z,98610.81
2022-11-24T22:22:03.133Z,98609.03
2022-11-24T22:24:29.970Z,98615.06
2022-11-24T22:26:56.526Z,98614.25
2022-11-24T22:29:23.067Z,98596.22
2022-11-24T22:31:49.759Z,98598.75
2022-11-24T22:34:16.419Z,98593.69
2022-11-24T22:36:42.995Z,98597.06
2022-11-24T22:39:12.123Z,98604.78
2022-11-24T22:41:38.846Z,98612.56
2022-11-24T22:44:05.843Z,98626.25
2022-11-24T22:46:32.825Z,98619.34
2022-11-24T22:49:01.049Z,98606.47
2022-11-24T22:51:31.353Z,98597.06
2022-11-24T22:53:59.529Z,98605.75
2022-11-24T22:56:28.067Z,98603.97
2022-11-24T22:58:54.829Z,98593.66
2022-11-24T23:01:23.911Z,98605.63
2022-11-24T23:03:53.796Z,98620.22
2022-11-24T23:06:24.035Z,98614.19
2022-11-24T23:08:51.912Z,98619.34
2022-11-24T23:11:24.668Z,98626.13
2022-11-24T23:13:55.448Z,98627.03
2022-11-24T23:16:22.814Z,98633.84
2022-11-24T23:18:53.702Z,98637.25
2022-11-24T23:23:58.112Z,98615.84
2022-11-24T23:26:27.958Z,98634.69
2022-11-24T23:28:54.723Z,98636.38
2022-11-24T23:31:24.563Z,98631.22
2022-11-24T23:33:51.273Z,98634.69
2022-11-24T23:36:19.647Z,98646.66
2022-11-24T23:38:46.839Z,98631.19
2022-11-24T23:41:16.023Z,98632.81
2022-11-24T23:43:43.177Z,98629.41
2022-11-24T23:46:12.591Z,98630.25
2022-11-24T23:48:39.913Z,98624.22
2022-11-24T23:51:26.362Z,98635.34
2022-11-24T23:53:53.350Z,98654.22
2022-11-24T23:56:24.786Z,98645.59
2022-11-24T23:58:51.871Z,98651.59
